sensor_id;sensor_type;location;lat;lon;timestamp;pressure;altitude;pressure_sealevel;temperature;humidity
26719;BME280;14326;50.794;6.060;2023-01-26T00:00:53;100586.78;;;-1.35;100.00
26719;BME280;14326;50.794;6.060;2023-01-26T00:03:20;100586.31;;;-1.29;100.00
26719;BME280;14326;50.794;6.060;2023-01-26T00:05:47;100581.53;;;-1.23;100.00
26719;BME280;14326;50.794;6.060;2023-01-26T00:08:14;100574.53;;;-1.24;100.00
26719;BME280;14326;50.794;6.060;2023-01-26T00:10:41;100579.75;;;-1.24;100.00
26719;BME280;14326;50.794;6.060;2023-01-26T00:13:15;100566.91;;;-1.21;100.00
26719;BME280;14326;50.794;6.060;2023-01-26T00:15:42;100559.19;;;-1.19;100.00
26719;BME280;14326;50.794;6.060;2023-01-26T00:18:10;100559.50;;;-1.15;100.00
26719;BME280;14326;50.794;6.060;2023-01-26T00:20:36;100560.19;;;-1.17;100.00
26719;BME280;14326;50.794;6.060;2023-01-26T00:23:03;100554.09;;;-1.18;100.00
26719;BME280;14326;50.794;6.060;2023-01-26T00:25:30;100557.69;;;-1.16;100.00
26719;BME280;14326;50.794;6.060;2023-01-26T00:27:56;100548.63;;;-1.21;100.00
26719;BME280;14326;50.794;6.060;2023-01-26T00:30:23;100550.66;;;-1.17;100.00
26719;BME280;14326;50.794;6.060;2023-01-26T00:32:50;100543.72;;;-1.16;100.00
26719;BME280;14326;50.794;6.060;2023-01-26T00:35:18;100550.56;;;-1.18;100.00
26719;BME280;14326;50.794;6.060;2023-01-26T00:37:44;100543.66;;;-1.18;100.00
26719;BME280;14326;50.794;6.060;2023-01-26T00:40:11;100543.22;;;-1.24;100.00
26719;BME280;14326;50.794;6.060;2023-01-26T00:42:38;100536.97;;;-1.26;100.00
26719;BME280;14326;50.794;6.060;2023-01-26T00:45:06;100531.31;;;-1.32;100.00
26719;BME280;14326;50.794;6.060;2023-01-26T00:47:32;100522.91;;;-1.28;100.00
26719;BME280;14326;50.794;6.060;2023-01-26T00:49:59;100510.44;;;-1.32;100.00
26719;BME280;14326;50.794;6.060;2023-01-26T00:52:27;100510.81;;;-1.39;100.00
26719;BME280;14326;50.794;6.060;2023-01-26T00:54:53;100502.88;;;-1.41;100.00
26719;BME280;14326;50.794;6.060;2023-01-26T00:57:20;100511.84;;;-1.37;100.00
26719;BME280;14326;50.794;6.060;2023-01-26T00:59:47;100503.09;;;-1.38;100.00
26719;BME280;14326;50.794;6.060;2023-01-26T01:02:13;100499.19;;;-1.56;100.00
26719;BME280;14326;50.794;6.060;2023-01-26T01:04:40;100491.84;;;-1.61;100.00
26719;BME280;14326;50.794;6.060;2023-01-26T01:07:06;100482.69;;;-1.68;100.00
26719;BME280;14326;50.794;6.060;2023-01-26T01:09:34;100489.38;;;-1.72;100.00
26719;BME280;14326;50.794;6.060;2023-01-26T01:12:01;100485.53;;;-1.65;100.00
26719;BME280;14326;50.794;6.060;2023-01-26T01:14:28;100479.41;;;-1.66;100.00
26719;BME280;14326;50.794;6.060;2023-01-26T01:16:54;100476.41;;;-1.58;100.00
26719;BME280;14326;50.794;6.060;2023-01-26T01:19:21;100471.72;;;-1.51;100.00
26719;BME280;14326;50.794;6.060;2023-01-26T01:21:48;100476.16;;;-1.50;100.00
26719;BME280;14326;50.794;6.060;2023-01-26T01:24:14;100474.56;;;-1.48;100.00
26719;BME280;14326;50.794;6.060;2023-01-26T01:26:42;100468.88;;;-1.42;100.00
26719;BME280;14326;50.794;6.060;2023-01-26T01:29:10;100462.25;;;-1.37;100.00
26719;BME280;14326;50.794;6.060;2023-01-26T01:31:38;100460.97;;;-1.31;100.00
26719;BME280;14326;50.794;6.060;2023-01-26T01:34:05;100463.59;;;-1.31;100.00
26719;BME280;14326;50.794;6.060;2023-01-26T01:36:32;100454.75;;;-1.33;100.00
26719;BME280;14326;50.794;6.060;2023-01-26T01:38:59;100452.94;;;-1.34;100.00
26719;BME280;14326;50.794;6.060;2023-01-26T01:41:25;100447.03;;;-1.31;100.00
26719;BME280;14326;50.794;6.060;2023-01-26T01:44:12;100451.06;;;-1.23;100.00
26719;BME280;14326;50.794;6.060;2023-01-26T01:46:42;100443.63;;;-1.17;100.00
26719;BME280;14326;50.794;6.060;2023-01-26T01:49:16;100440.13;;;-1.17;100.00
26719;BME280;14326;50.794;6.060;2023-01-26T01:51:47;100439.03;;;-1.21;100.00
26719;BME280;14326;50.794;6.060;2023-01-26T01:54:18;100429.38;;;-1.22;100.00
26719;BME280;14326;50.794;6.060;2023-01-26T01:56:49;100431.00;;;-1.24;100.00
26719;BME280;14326;50.794;6.060;2023-01-26T01:59:19;100437.44;;;-1.19;100.00
26719;BME280;14326;50.794;6.060;2023-01-26T02:01:47;100427.19;;;-1.16;100.00
26719;BME280;14326;50.794;6.060;2023-01-26T02:04:15;100430.94;;;-1.12;100.00
26719;BME280;14326;50.794;6.060;2023-01-26T02:06:46;100427.84;;;-1.07;100.00
26719;BME280;14326;50.794;6.060;2023-01-26T02:09:14;100423.59;;;-1.05;100.00
26719;BME280;14326;50.794;6.060;2023-01-26T02:11:56;100416.00;;;-1.02;100.00
26719;BME280;14326;50.794;6.060;2023-01-26T02:14:25;100405.72;;;-0.99;100.00
26719;BME280;14326;50.794;6.060;2023-01-26T02:16:52;100412.38;;;-0.91;100.00
26719;BME280;14326;50.794;6.060;2023-01-26T02:19:25;100414.28;;;-0.88;100.00
26719;BME280;14326;50.794;6.060;2023-01-26T02:21:56;100421.22;;;-0.89;100.00
26719;BME280;14326;50.794;6.060;2023-01-26T02:24:28;100418.81;;;-0.86;100.00
26719;BME280;14326;50.794;6.060;2023-01-26T02:26:59;100416.50;;;-0.81;100.00
26719;BME280;14326;50.794;6.060;2023-01-26T02:29:26;100415.28;;;-0.86;100.00
26719;BME280;14326;50.794;6.060;2023-01-26T02:31:53;100413.69;;;-0.84;100.00
26719;BME280;14326;50.794;6.060;2023-01-26T02:34:22;100415.41;;;-0.85;100.00
26719;BME280;14326;50.794;6.060;2023-01-26T02:36:56;100413.09;;;-0.80;100.00
26719;BME280;14326;50.794;6.060;2023-01-26T02:39:33;100408.19;;;-0.89;100.00
26719;BME280;14326;50.794;6.060;2023-01-26T02:42:05;100404.75;;;-0.88;100.00
26719;BME280;14326;50.794;6.060;2023-01-26T02:44:49;100414.50;;;-0.85;100.00
26719;BME280;14326;50.794;6.060;2023-01-26T02:47:17;100404.06;;;-0.85;100.00
26719;BME280;14326;50.794;6.060;2023-01-26T02:49:44;100399.63;;;-0.86;100.00
26719;BME280;14326;50.794;6.060;2023-01-26T02:52:15;100407.47;;;-0.86;100.00
26719;BME280;14326;50.794;6.060;2023-01-26T02:54:42;100397.81;;;-0.87;100.00
26719;BME280;14326;50.794;6.060;2023-01-26T02:57:28;100402.06;;;-0.89;100.00
26719;BME280;14326;50.794;6.060;2023-01-26T02:59:55;100399.34;;;-0.91;100.00
26719;BME280;14326;50.794;6.060;2023-01-26T03:02:21;100398.41;;;-0.91;100.00
26719;BME280;14326;50.794;6.060;2023-01-26T03:04:48;100403.84;;;-0.88;100.00
26719;BME280;14326;50.794;6.060;2023-01-26T03:07:15;100394.28;;;-0.88;100.00
26719;BME280;14326;50.794;6.060;2023-01-26T03:09:41;100387.38;;;-0.87;100.00
26719;BME280;14326;50.794;6.060;2023-01-26T03:12:08;100391.69;;;-0.88;100.00
26719;BME280;14326;50.794;6.060;2023-01-26T03:14:36;100392.00;;;-0.83;100.00
26719;BME280;14326;50.794;6.060;2023-01-26T03:17:03;100394.63;;;-0.83;100.00
26719;BME280;14326;50.794;6.060;2023-01-26T03:19:29;100383.56;;;-0.79;100.00
26719;BME280;14326;50.794;6.060;2023-01-26T03:22:13;100381.88;;;-0.78;100.00
26719;BME280;14326;50.794;6.060;2023-01-26T03:24:58;100384.47;;;-0.78;100.00
26719;BME280;14326;50.794;6.060;2023-01-26T03:27:44;100379.38;;;-0.77;100.00
26719;BME280;14326;50.794;6.060;2023-01-26T03:30:14;100381.88;;;-0.78;100.00
26719;BME280;14326;50.794;6.060;2023-01-26T03:32:41;100379.25;;;-0.78;100.00
26719;BME280;14326;50.794;6.060;2023-01-26T03:35:07;100377.63;;;-0.76;100.00
26719;BME280;14326;50.794;6.060;2023-01-26T03:37:40;100379.25;;;-0.78;100.00
26719;BME280;14326;50.794;6.060;2023-01-26T03:40:10;100375.63;;;-0.80;100.00
26719;BME280;14326;50.794;6.060;2023-01-26T03:42:55;100379.25;;;-0.78;100.00
26719;BME280;14326;50.794;6.060;2023-01-26T03:45:41;100374.22;;;-0.75;100.00
26719;BME280;14326;50.794;6.060;2023-01-26T03:48:25;100370.81;;;-0.74;100.00
26719;BME280;14326;50.794;6.060;2023-01-26T03:51:09;100372.00;;;-0.69;100.00
26719;BME280;14326;50.794;6.060;2023-01-26T03:53:53;100361.25;;;-0.74;100.00
26719;BME280;14326;50.794;6.060;2023-01-26T03:56:37;100369.09;;;-0.74;100.00
26719;BME280;14326;50.794;6.060;2023-01-26T03:59:06;100363.97;;;-0.72;100.00
26719;BME280;14326;50.794;6.060;2023-01-26T04:01:36;100366.72;;;-0.71;100.00
26719;BME280;14326;50.794;6.060;2023-01-26T04:04:03;100370.81;;;-0.74;100.00
26719;BME280;14326;50.794;6.060;2023-01-26T04:06:49;100377.03;;;-0.72;100.00
26719;BME280;14326;50.794;6.060;2023-01-26T04:09:33;100371.72;;;-0.74;100.00
26719;BME280;14326;50.794;6.060;2023-01-26T04:12:01;100363.97;;;-0.72;100.00
26719;BME280;14326;50.794;6.060;2023-01-26T04:14:28;100367.59;;;-0.70;100.00
26719;BME280;14326;50.794;6.060;2023-01-26T04:17:13;100373.03;;;-0.67;100.00
26719;BME280;14326;50.794;6.060;2023-01-26T04:19:57;100372.22;;;-0.66;100.00
26719;BME280;14326;50.794;6.060;2023-01-26T04:22:41;100374.13;;;-0.64;100.00
26719;BME280;14326;50.794;6.060;2023-01-26T04:25:11;100367.78;;;-0.67;100.00
26719;BME280;14326;50.794;6.060;2023-01-26T04:27:38;100365.97;;;-0.68;100.00
26719;BME280;14326;50.794;6.060;2023-01-26T04:30:06;100358.94;;;-0.69;100.00
26719;BME280;14326;50.794;6.060;2023-01-26T04:32:34;100355.34;;;-0.71;100.00
26719;BME280;14326;50.794;6.060;2023-01-26T04:35:01;100354.84;;;-0.66;100.00
26719;BME280;14326;50.794;6.060;2023-01-26T04:37:28;100346.09;;;-0.66;100.00
26719;BME280;14326;50.794;6.060;2023-01-26T04:39:55;100348.00;;;-0.64;100.00
26719;BME280;14326;50.794;6.060;2023-01-26T04:42:21;100350.03;;;-0.60;100.00
26719;BME280;14326;50.794;6.060;2023-01-26T04:44:49;100346.78;;;-0.56;100.00
26719;BME280;14326;50.794;6.060;2023-01-26T04:47:16;100351.91;;;-0.57;100.00
26719;BME280;14326;50.794;6.060;2023-01-26T04:49:44;100364.16;;;-0.56;100.00
26719;BME280;14326;50.794;6.060;2023-01-26T04:52:10;100366.38;;;-0.62;100.00
26719;BME280;14326;50.794;6.060;2023-01-26T04:54:37;100364.09;;;-0.71;100.00
26719;BME280;14326;50.794;6.060;2023-01-26T04:57:04;100369.00;;;-0.75;100.00
26719;BME280;14326;50.794;6.060;2023-01-26T04:59:31;100372.50;;;-0.75;100.00
26719;BME280;14326;50.794;6.060;2023-01-26T05:01:58;100366.09;;;-0.80;100.00
26719;BME280;14326;50.794;6.060;2023-01-26T05:04:25;100365.97;;;-0.82;100.00
26719;BME280;14326;50.794;6.060;2023-01-26T05:06:52;100372.22;;;-0.79;100.00
26719;BME280;14326;50.794;6.060;2023-01-26T05:09:19;100365.41;;;-0.77;100.00
26719;BME280;14326;50.794;6.060;2023-01-26T05:11:46;100367.00;;;-0.79;100.00
26719;BME280;14326;50.794;6.060;2023-01-26T05:14:13;100362.84;;;-0.76;100.00
26719;BME280;14326;50.794;6.060;2023-01-26T05:16:40;100367.19;;;-0.76;100.00
26719;BME280;14326;50.794;6.060;2023-01-26T05:19:06;100376.03;;;-0.74;100.00
26719;BME280;14326;50.794;6.060;2023-01-26T05:21:33;100373.22;;;-0.77;100.00
26719;BME280;14326;50.794;6.060;2023-01-26T05:24:01;100365.41;;;-0.77;100.00
26719;BME280;14326;50.794;6.060;2023-01-26T05:26:28;100371.19;;;-0.82;100.00
26719;BME280;14326;50.794;6.060;2023-01-26T05:28:54;100379.03;;;-0.82;100.00
26719;BME280;14326;50.794;6.060;2023-01-26T05:31:21;100372.31;;;-0.78;100.00
26719;BME280;14326;50.794;6.060;2023-01-26T05:33:48;100369.72;;;-0.78;100.00
26719;BME280;14326;50.794;6.060;2023-01-26T05:36:14;100374.03;;;-0.78;100.00
26719;BME280;14326;50.794;6.060;2023-01-26T05:38:41;100370.69;;;-0.76;100.00
26719;BME280;14326;50.794;6.060;2023-01-26T05:41:09;100376.03;;;-0.74;100.00
26719;BME280;14326;50.794;6.060;2023-01-26T05:43:35;100375.84;;;-0.77;100.00
26719;BME280;14326;50.794;6.060;2023-01-26T05:46:04;100373.31;;;-0.76;100.00
26719;BME280;14326;50.794;6.060;2023-01-26T05:48:41;100367.59;;;-0.70;100.00
26719;BME280;14326;50.794;6.060;2023-01-26T05:51:08;100365.19;;;-0.67;100.00
26719;BME280;14326;50.794;6.060;2023-01-26T05:53:35;100376.66;;;-0.65;100.00
26719;BME280;14326;50.794;6.060;2023-01-26T05:56:02;100361.38;;;-0.59;100.00
26719;BME280;14326;50.794;6.060;2023-01-26T05:58:30;100365.59;;;-0.61;100.00
26719;BME280;14326;50.794;6.060;2023-01-26T06:00:56;100372.91;;;-0.56;100.00
26719;BME280;14326;50.794;6.060;2023-01-26T06:03:23;100363.47;;;-0.54;100.00
26719;BME280;14326;50.794;6.060;2023-01-26T06:05:53;100370.97;;;-0.45;100.00
26719;BME280;14326;50.794;6.060;2023-01-26T06:08:20;100365.75;;;-0.45;100.00
26719;BME280;14326;50.794;6.060;2023-01-26T06:10:46;100364.16;;;-0.43;100.00
26719;BME280;14326;50.794;6.060;2023-01-26T06:13:13;100368.59;;;-0.42;100.00
26719;BME280;14326;50.794;6.060;2023-01-26T06:15:41;100377.13;;;-0.45;100.00
26719;BME280;14326;50.794;6.060;2023-01-26T06:18:08;100369.50;;;-0.55;100.00
26719;BME280;14326;50.794;6.060;2023-01-26T06:20:34;100383.53;;;-0.53;100.00
26719;BME280;14326;50.794;6.060;2023-01-26T06:23:01;100386.47;;;-0.48;100.00
26719;BME280;14326;50.794;6.060;2023-01-26T06:25:27;100382.34;;;-0.45;100.00
26719;BME280;14326;50.794;6.060;2023-01-26T06:27:56;100390.47;;;-0.40;100.00
26719;BME280;14326;50.794;6.060;2023-01-26T06:30:23;100378.41;;;-0.38;100.00
26719;BME280;14326;50.794;6.060;2023-01-26T06:32:51;100377.72;;;-0.35;100.00
26719;BME280;14326;50.794;6.060;2023-01-26T06:35:17;100389.38;;;-0.30;100.00
26719;BME280;14326;50.794;6.060;2023-01-26T06:37:47;100392.78;;;-0.31;100.00
26719;BME280;14326;50.794;6.060;2023-01-26T06:40:14;100387.66;;;-0.30;100.00
26719;BME280;14326;50.794;6.060;2023-01-26T06:42:46;100386.75;;;-0.30;100.00
26719;BME280;14326;50.794;6.060;2023-01-26T06:45:12;100389.25;;;-0.32;100.00
26719;BME280;14326;50.794;6.060;2023-01-26T06:47:43;100389.88;;;-0.36;100.00
26719;BME280;14326;50.794;6.060;2023-01-26T06:50:13;100389.25;;;-0.32;100.00
26719;BME280;14326;50.794;6.060;2023-01-26T06:52:40;100381.59;;;-0.29;100.00
26719;BME280;14326;50.794;6.060;2023-01-26T06:55:15;100378.28;;;-0.26;100.00
26719;BME280;14326;50.794;6.060;2023-01-26T06:57:44;100388.94;;;-0.23;100.00
26719;BME280;14326;50.794;6.060;2023-01-26T07:00:11;100394.16;;;-0.23;100.00
26719;BME280;14326;50.794;6.060;2023-01-26T07:02:39;100394.47;;;-0.19;100.00
26719;BME280;14326;50.794;6.060;2023-01-26T07:05:06;100396.66;;;-0.12;100.00
26719;BME280;14326;50.794;6.060;2023-01-26T07:07:34;100399.59;;;-0.07;100.00
26719;BME280;14326;50.794;6.060;2023-01-26T07:10:02;100401.28;;;-0.08;100.00
26719;BME280;14326;50.794;6.060;2023-01-26T07:12:41;100395.94;;;-0.09;100.00
26719;BME280;14326;50.794;6.060;2023-01-26T07:15:09;100389.41;;;-0.03;100.00
26719;BME280;14326;50.794;6.060;2023-01-26T07:17:37;100393.03;;;-0.01;100.00
26719;BME280;14326;50.794;6.060;2023-01-26T07:20:04;100397.16;;;-0.04;100.00
26719;BME280;14326;50.794;6.060;2023-01-26T07:22:31;100401.69;;;-0.02;100.00
26719;BME280;14326;50.794;6.060;2023-01-26T07:24:59;100393.94;;;0.00;100.00
26719;BME280;14326;50.794;6.060;2023-01-26T07:27:26;100400.25;;;0.04;100.00
26719;BME280;14326;50.794;6.060;2023-01-26T07:29:58;100398.44;;;0.03;100.00
26719;BME280;14326;50.794;6.060;2023-01-26T07:32:34;100398.44;;;0.03;100.00
26719;BME280;14326;50.794;6.060;2023-01-26T07:35:02;100402.88;;;0.04;100.00
26719;BME280;14326;50.794;6.060;2023-01-26T07:37:29;100394.81;;;0.00;100.00
26719;BME280;14326;50.794;6.060;2023-01-26T07:39:56;100392.56;;;0.07;100.00
26719;BME280;14326;50.794;6.060;2023-01-26T07:42:24;100398.81;;;0.09;100.00
26719;BME280;14326;50.794;6.060;2023-01-26T07:44:51;100407.06;;;0.15;100.00
26719;BME280;14326;50.794;6.060;2023-01-26T07:47:18;100409.38;;;0.10;100.00
26719;BME280;14326;50.794;6.060;2023-01-26T07:49:44;100410.75;;;0.18;100.00
26719;BME280;14326;50.794;6.060;2023-01-26T07:52:12;100409.16;;;0.20;100.00
26719;BME280;14326;50.794;6.060;2023-01-26T07:54:38;100411.06;;;0.23;100.00
26719;BME280;14326;50.794;6.060;2023-01-26T07:57:05;100401.41;;;0.22;100.00
26719;BME280;14326;50.794;6.060;2023-01-26T07:59:34;100410.34;;;0.25;100.00
26719;BME280;14326;50.794;6.060;2023-01-26T08:02:00;100412.25;;;0.28;100.00
26719;BME280;14326;50.794;6.060;2023-01-26T08:04:27;100409.81;;;0.31;100.00
26719;BME280;14326;50.794;6.060;2023-01-26T08:06:54;100410.00;;;0.34;100.00
26719;BME280;14326;50.794;6.060;2023-01-26T08:09:20;100407.19;;;0.31;100.00
26719;BME280;14326;50.794;6.060;2023-01-26T08:11:47;100410.81;;;0.33;100.00
26719;BME280;14326;50.794;6.060;2023-01-26T08:14:14;100414.88;;;0.28;100.00
26719;BME280;14326;50.794;6.060;2023-01-26T08:16:42;100425.13;;;0.25;100.00
26719;BME280;14326;50.794;6.060;2023-01-26T08:19:09;100415.47;;;0.24;100.00
26719;BME280;14326;50.794;6.060;2023-01-26T08:21:36;100416.28;;;0.23;100.00
26719;BME280;14326;50.794;6.060;2023-01-26T08:24:03;100420.69;;;0.24;100.00
26719;BME280;14326;50.794;6.060;2023-01-26T08:26:31;100423.13;;;0.21;100.00
26719;BME280;14326;50.794;6.060;2023-01-26T08:28:58;100424.16;;;0.23;100.00
26719;BME280;14326;50.794;6.060;2023-01-26T08:31:25;100419.28;;;0.29;100.00
26719;BME280;14326;50.794;6.060;2023-01-26T08:33:54;100427.31;;;0.32;100.00
26719;BME280;14326;50.794;6.060;2023-01-26T08:36:21;100424.69;;;0.32;100.00
26719;BME280;14326;50.794;6.060;2023-01-26T08:38:48;100430.22;;;0.36;100.00
26719;BME280;14326;50.794;6.060;2023-01-26T08:41:15;100427.53;;;0.35;100.00
26719;BME280;14326;50.794;6.060;2023-01-26T08:43:42;100433.47;;;0.32;100.00
26719;BME280;14326;50.794;6.060;2023-01-26T08:46:09;100435.97;;;0.31;100.00
26719;BME280;14326;50.794;6.060;2023-01-26T08:48:35;100440.41;;;0.32;100.00
26719;BME280;14326;50.794;6.060;2023-01-26T08:51:06;100440.00;;;0.26;100.00
26719;BME280;14326;50.794;6.060;2023-01-26T08:53:35;100441.63;;;0.24;100.00
26719;BME280;14326;50.794;6.060;2023-01-26T08:56:04;100440.00;;;0.26;100.00
26719;BME280;14326;50.794;6.060;2023-01-26T08:58:31;100434.78;;;0.26;100.00
26719;BME280;14326;50.794;6.060;2023-01-26T09:00:58;100440.00;;;0.26;100.00
26719;BME280;14326;50.794;6.060;2023-01-26T09:03:25;100440.00;;;0.26;100.00
26719;BME280;14326;50.794;6.060;2023-01-26T09:05:51;100435.69;;;0.26;100.00
26719;BME280;14326;50.794;6.060;2023-01-26T09:08:19;100446.16;;;0.26;100.00
26719;BME280;14326;50.794;6.060;2023-01-26T09:10:46;100442.84;;;0.29;100.00
26719;BME280;14326;50.794;6.060;2023-01-26T09:13:12;100451.59;;;0.29;100.00
26719;BME280;14326;50.794;6.060;2023-01-26T09:15:39;100450.88;;;0.32;100.00
26719;BME280;14326;50.794;6.060;2023-01-26T09:18:06;100454.56;;;0.35;100.00
26719;BME280;14326;50.794;6.060;2023-01-26T09:20:32;100454.50;;;0.34;100.00
26719;BME280;14326;50.794;6.060;2023-01-26T09:22:59;100460.25;;;0.28;100.00
26719;BME280;14326;50.794;6.060;2023-01-26T09:25:27;100460.16;;;0.27;100.00
26719;BME280;14326;50.794;6.060;2023-01-26T09:27:54;100456.91;;;0.31;100.00
26719;BME280;14326;50.794;6.060;2023-01-26T09:30:20;100452.69;;;0.33;100.00
26719;BME280;14326;50.794;6.060;2023-01-26T09:32:48;100461.72;;;0.38;100.00
26719;BME280;14326;50.794;6.060;2023-01-26T09:35:15;100460.00;;;0.38;100.00
26719;BME280;14326;50.794;6.060;2023-01-26T09:37:42;100465.41;;;0.41;100.00
26719;BME280;14326;50.794;6.060;2023-01-26T09:40:15;100470.97;;;0.46;100.00
26719;BME280;14326;50.794;6.060;2023-01-26T09:42:56;100466.63;;;0.47;100.00
26719;BME280;14326;50.794;6.060;2023-01-26T09:45:28;100471.13;;;0.49;100.00
26719;BME280;14326;50.794;6.060;2023-01-26T09:48:11;100474.38;;;0.45;100.00
26719;BME280;14326;50.794;6.060;2023-01-26T09:50:46;100467.44;;;0.46;100.00
26719;BME280;14326;50.794;6.060;2023-01-26T09:53:18;100468.13;;;0.43;100.00
26719;BME280;14326;50.794;6.060;2023-01-26T09:55:45;100473.38;;;0.43;100.00
26719;BME280;14326;50.794;6.060;2023-01-26T09:58:21;100474.38;;;0.45;100.00
26719;BME280;14326;50.794;6.060;2023-01-26T10:00:52;100477.28;;;0.50;100.00
26719;BME280;14326;50.794;6.060;2023-01-26T10:03:25;100473.56;;;0.46;100.00
26719;BME280;14326;50.794;6.060;2023-01-26T10:06:01;100477.81;;;0.44;100.00
26719;BME280;14326;50.794;6.060;2023-01-26T10:08:29;100473.47;;;0.45;100.00
26719;BME280;14326;50.794;6.060;2023-01-26T10:10:59;100477.16;;;0.48;100.00
26719;BME280;14326;50.794;6.060;2023-01-26T10:13:28;100474.75;;;0.51;100.00
26719;BME280;14326;50.794;6.060;2023-01-26T10:15:57;100470.50;;;0.53;100.00
26719;BME280;14326;50.794;6.060;2023-01-26T10:18:29;100468.28;;;0.59;100.00
26719;BME280;14326;50.794;6.060;2023-01-26T10:20:59;100457.00;;;0.60;100.00
26719;BME280;14326;50.794;6.060;2023-01-26T10:23:28;100465.97;;;0.64;100.00
26719;BME280;14326;50.794;6.060;2023-01-26T10:26:00;100455.38;;;0.62;100.00
26719;BME280;14326;50.794;6.060;2023-01-26T10:28:30;100463.34;;;0.64;100.00
26719;BME280;14326;50.794;6.060;2023-01-26T10:31:00;100456.56;;;0.67;100.00
26719;BME280;14326;50.794;6.060;2023-01-26T10:33:31;100454.75;;;0.66;100.00
26719;BME280;14326;50.794;6.060;2023-01-26T10:35:58;100446.09;;;0.67;100.00
26719;BME280;14326;50.794;6.060;2023-01-26T10:38:27;100450.00;;;0.74;100.00
26719;BME280;14326;50.794;6.060;2023-01-26T10:41:04;100443.97;;;0.75;100.00
26719;BME280;14326;50.794;6.060;2023-01-26T10:43:35;100453.41;;;0.73;100.00
26719;BME280;14326;50.794;6.060;2023-01-26T10:46:03;100444.66;;;0.72;100.00
26719;BME280;14326;50.794;6.060;2023-01-26T10:48:30;100445.25;;;0.81;100.00
26719;BME280;14326;50.794;6.060;2023-01-26T10:51:14;100443.53;;;0.82;100.00
26719;BME280;14326;50.794;6.060;2023-01-26T10:53:41;100434.94;;;0.85;100.00
26719;BME280;14326;50.794;6.060;2023-01-26T10:56:11;100435.13;;;0.88;100.00
26719;BME280;14326;50.794;6.060;2023-01-26T10:58:46;100441.56;;;0.93;100.00
26719;BME280;14326;50.794;6.060;2023-01-26T11:01:19;100437.94;;;0.91;100.00
26719;BME280;14326;50.794;6.060;2023-01-26T11:04:01;100429.25;;;0.92;100.00
26719;BME280;14326;50.794;6.060;2023-01-26T11:06:30;100427.44;;;0.91;100.00
26719;BME280;14326;50.794;6.060;2023-01-26T11:09:08;100422.22;;;0.91;100.00
26719;BME280;14326;50.794;6.060;2023-01-26T11:11:35;100417.97;;;0.93;100.00
26719;BME280;14326;50.794;6.060;2023-01-26T11:14:10;100414.56;;;0.94;100.00
26719;BME280;14326;50.794;6.060;2023-01-26T11:16:39;100425.19;;;0.97;100.00
26719;BME280;14326;50.794;6.060;2023-01-26T11:19:11;100413.81;;;0.96;100.00
26719;BME280;14326;50.794;6.060;2023-01-26T11:21:45;100417.44;;;0.98;100.00
26719;BME280;14326;50.794;6.060;2023-01-26T11:24:16;100413.09;;;0.99;100.00
26719;BME280;14326;50.794;6.060;2023-01-26T11:27:01;100410.28;;;0.96;100.00
26719;BME280;14326;50.794;6.060;2023-01-26T11:29:46;100414.72;;;0.97;100.00
26719;BME280;14326;50.794;6.060;2023-01-26T11:32:19;100417.34;;;0.97;100.00
26719;BME280;14326;50.794;6.060;2023-01-26T11:34:56;100417.19;;;0.94;100.00
26719;BME280;14326;50.794;6.060;2023-01-26T11:37:38;100418.34;;;0.99;100.00
26719;BME280;14326;50.794;6.060;2023-01-26T11:40:31;100428.47;;;0.93;100.00
26719;BME280;14326;50.794;6.060;2023-01-26T11:43:12;100426.09;;;0.97;100.00
26719;BME280;14326;50.794;6.060;2023-01-26T11:45:58;100420.88;;;0.97;100.00
26719;BME280;14326;50.794;6.060;2023-01-26T11:48:33;100419.78;;;0.94;100.00
26719;BME280;14326;50.794;6.060;2023-01-26T11:51:06;100419.31;;;0.86;100.00
26719;BME280;14326;50.794;6.060;2023-01-26T11:54:02;100415.81;;;0.86;100.00
26719;BME280;14326;50.794;6.060;2023-01-26T11:56:39;100409.66;;;0.85;100.00
26719;BME280;14326;50.794;6.060;2023-01-26T11:59:12;100412.53;;;0.90;100.00
26719;BME280;14326;50.794;6.060;2023-01-26T12:01:47;100413.44;;;0.90;100.00
26719;BME280;14326;50.794;6.060;2023-01-26T12:04:18;100407.31;;;0.90;100.00
26719;BME280;14326;50.794;6.060;2023-01-26T12:06:47;100403.88;;;0.91;100.00
26719;BME280;14326;50.794;6.060;2023-01-26T12:09:20;100399.56;;;0.91;100.00
26719;BME280;14326;50.794;6.060;2023-01-26T12:11:54;100396.13;;;0.92;100.00
26719;BME280;14326;50.794;6.060;2023-01-26T12:14:25;100398.84;;;0.94;100.00
26719;BME280;14326;50.794;6.060;2023-01-26T12:17:25;100400.63;;;0.95;100.00
26719;BME280;14326;50.794;6.060;2023-01-26T12:19:57;100401.34;;;0.92;100.00
26719;BME280;14326;50.794;6.060;2023-01-26T12:22:32;100398.00;;;0.95;100.00
26719;BME280;14326;50.794;6.060;2023-01-26T12:25:06;100399.66;;;0.93;100.00
26719;BME280;14326;50.794;6.060;2023-01-26T12:27:43;100399.81;;;0.96;100.00
26719;BME280;14326;50.794;6.060;2023-01-26T12:30:33;100389.28;;;0.94;100.00
26719;BME280;14326;50.794;6.060;2023-01-26T12:33:04;100382.13;;;0.92;100.00
26719;BME280;14326;50.794;6.060;2023-01-26T12:35:43;100384.84;;;0.93;100.00
26719;BME280;14326;50.794;6.060;2023-01-26T12:38:18;100386.97;;;1.00;100.00
26719;BME280;14326;50.794;6.060;2023-01-26T12:40:58;100374.78;;;1.01;100.00
26719;BME280;14326;50.794;6.060;2023-01-26T12:43:42;100368.75;;;1.02;100.00
26719;BME280;14326;50.794;6.060;2023-01-26T12:46:15;100367.84;;;1.01;100.00
26719;BME280;14326;50.794;6.060;2023-01-26T12:48:48;100362.81;;;1.04;100.00
26719;BME280;14326;50.794;6.060;2023-01-26T12:51:20;100362.91;;;1.06;100.00
26719;BME280;14326;50.794;6.060;2023-01-26T12:53:56;100361.25;;;1.08;100.00
26719;BME280;14326;50.794;6.060;2023-01-26T12:56:27;100362.91;;;1.06;100.00
26719;BME280;14326;50.794;6.060;2023-01-26T12:58:59;100363.72;;;1.05;100.00
26719;BME280;14326;50.794;6.060;2023-01-26T13:01:37;100368.13;;;1.06;100.00